createdAt,value
2023-05-15T00:08:13.226Z,70.82
2023-05-15T00:18:16.966Z,72.49
2023-05-15T00:38:23.753Z,73.21
2023-05-15T00:48:29.123Z,73.71
2023-05-15T00:58:33.771Z,74.49
2023-05-15T01:08:36.456Z,74.84
2023-05-15T01:18:40.322Z,74.96
2023-05-15T01:28:51.518Z,75.01
2023-05-15T01:39:00.626Z,75.24
2023-05-15T01:49:09.335Z,75.44
2023-05-15T01:59:13.600Z,76.05
2023-05-15T02:09:18.675Z,76.29
2023-05-15T02:19:22.850Z,77.00
2023-05-15T02:29:36.667Z,77.00
2023-05-15T02:39:45.551Z,77.60
2023-05-15T02:49:50.218Z,77.48
2023-05-15T02:59:53.698Z,77.44
2023-05-15T03:09:57.181Z,77.82
2023-05-15T03:20:05.425Z,77.79
2023-05-15T03:30:10.610Z,77.78
2023-05-15T03:50:17.423Z,78.01
2023-05-15T04:00:21.896Z,78.24
2023-05-15T04:10:25.627Z,78.87
2023-05-15T04:20:29.338Z,79.30
2023-05-15T04:30:33.536Z,79.31
2023-05-15T04:40:37.165Z,79.55
2023-05-15T04:50:44.059Z,79.63
2023-05-15T05:00:47.721Z,79.68
2023-05-15T05:10:55.364Z,79.55
2023-05-15T05:21:03.048Z,79.89
2023-05-15T05:31:10.377Z,79.85
2023-05-15T05:41:14.312Z,79.79
2023-05-15T05:51:18.408Z,79.85
2023-05-15T06:01:22.265Z,80.12
2023-05-15T06:11:26.622Z,80.13
2023-05-15T06:21:30.430Z,80.33
2023-05-15T06:31:34.599Z,80.12
2023-05-15T06:41:40.728Z,80.33
2023-05-15T06:51:48.269Z,80.30
2023-05-15T07:01:51.947Z,80.78
2023-05-15T07:11:59.418Z,80.91
2023-05-15T07:22:03.660Z,80.70
2023-05-15T07:32:11.177Z,80.79
2023-05-15T07:42:15.371Z,80.77
2023-05-15T07:52:19.324Z,80.57
2023-05-15T08:02:23.578Z,80.52
2023-05-15T08:22:35.235Z,80.54
2023-05-15T08:32:42.763Z,80.33
2023-05-15T08:42:52.890Z,80.74
2023-05-15T08:52:57.618Z,80.66
2023-05-15T09:03:01.849Z,80.73
2023-05-15T09:13:11.568Z,80.58
2023-05-15T09:23:28.376Z,80.92
2023-05-15T09:33:31.596Z,80.80
2023-05-15T09:43:39.018Z,81.03
2023-05-15T09:53:42.559Z,80.67
2023-05-15T10:03:57.720Z,80.69
2023-05-15T10:14:02.221Z,80.81
2023-05-15T10:24:05.906Z,80.71
2023-05-15T10:34:20.064Z,80.40
2023-05-15T10:44:27.157Z,80.04
2023-05-15T10:54:31.217Z,79.82
2023-05-15T11:04:36.328Z,78.96
2023-05-15T11:14:39.844Z,78.86
2023-05-15T11:24:47.598Z,78.93
2023-05-15T11:34:52.907Z,79.21
2023-05-15T11:44:58.544Z,78.62
2023-05-15T11:55:02.733Z,77.93
2023-05-15T12:05:07.767Z,77.71
2023-05-15T12:15:13.717Z,76.60
2023-05-15T12:25:17.754Z,75.82
2023-05-15T12:35:20.382Z,74.69
2023-05-15T12:45:24.759Z,73.06
2023-05-15T12:55:34.159Z,72.05
2023-05-15T13:05:39.833Z,71.46
2023-05-15T13:15:44.128Z,70.87
2023-05-15T13:25:48.265Z,70.28
2023-05-15T13:35:52.425Z,70.54
2023-05-15T13:45:56.185Z,71.28
2023-05-15T13:56:00.266Z,71.44
2023-05-15T14:06:04.916Z,72.77
2023-05-15T14:16:12.253Z,73.75
2023-05-15T14:26:16.170Z,74.19
2023-05-15T14:36:20.386Z,74.62
2023-05-15T14:46:24.102Z,74.64
2023-05-15T14:56:30.781Z,74.62
2023-05-15T15:16:43.993Z,74.02
2023-05-15T15:26:48.373Z,73.52
2023-05-15T15:36:52.394Z,73.57
2023-05-15T15:46:56.099Z,73.39
2023-05-15T15:57:00.298Z,73.38
2023-05-15T16:07:03.876Z,73.17
2023-05-15T16:17:07.776Z,73.37
2023-05-15T16:27:15.526Z,73.27
2023-05-15T16:37:19.873Z,73.25
2023-05-15T16:47:23.742Z,73.53
2023-05-15T16:57:28.289Z,73.64
2023-05-15T17:07:33.773Z,73.66
2023-05-15T17:17:37.896Z,73.57
2023-05-15T17:27:41.869Z,73.85
2023-05-15T17:37:45.516Z,74.02
2023-05-15T17:57:53.160Z,74.96
2023-05-15T18:07:56.657Z,74.82
2023-05-15T18:18:00.456Z,75.10
2023-05-15T18:28:08.195Z,75.54
2023-05-15T18:38:15.246Z,75.83
2023-05-15T18:48:18.810Z,76.37
2023-05-15T18:58:22.535Z,77.17
2023-05-15T19:08:26.056Z,77.43
2023-05-15T19:18:33.264Z,77.65
2023-05-15T19:28:37.002Z,77.67
2023-05-15T19:38:40.823Z,77.86
2023-05-15T19:48:48.214Z,77.89
2023-05-15T19:58:52.024Z,77.96
2023-05-15T20:08:55.889Z,78.20
2023-05-15T20:18:59.631Z,78.42
2023-05-15T20:29:07.306Z,78.66
2023-05-15T20:39:14.273Z,78.53
2023-05-15T20:49:18.088Z,78.59
2023-05-15T20:59:21.360Z,78.66
2023-05-15T21:09:25.090Z,78.65
2023-05-15T21:19:28.732Z,78.59
2023-05-15T21:29:36.791Z,78.31
2023-05-15T21:39:41.073Z,78.38
2023-05-15T21:49:44.597Z,78.50
2023-05-15T21:59:48.176Z,78.69
2023-05-15T22:09:52.669Z,78.94
2023-05-15T22:19:57.557Z,78.99
2023-05-15T22:30:01.305Z,78.98
2023-05-15T22:40:10.532Z,79.14
2023-05-15T22:50:38.732Z,79.28
2023-05-15T23:00:42.366Z,79.27
2023-05-15T23:10:46.045Z,79.54
2023-05-15T23:20:50.334Z,79.59
2023-05-15T23:30:54.357Z,79.56
2023-05-15T23:40:58.208Z,79.58
2023-05-15T23:51:01.921Z,79.53
